createdAt,value
2019-01-23T00:00:34.996Z,337.50
2019-01-23T00:03:03.599Z,342.60
2019-01-23T00:05:32.217Z,298.67
2019-01-23T00:08:00.949Z,366.60
2019-01-23T00:10:29.569Z,320.27
2019-01-23T00:12:58.110Z,356.17
2019-01-23T00:15:26.810Z,286.67
2019-01-23T00:17:55.420Z,252.57
2019-01-23T00:20:23.969Z,443.33
2019-01-23T00:22:52.572Z,349.43
2019-01-23T00:25:21.256Z,233.60
2019-01-23T00:27:49.968Z,290.23
2019-01-23T00:30:18.719Z,331.17
2019-01-23T00:32:47.195Z,330.07
2019-01-23T00:35:15.748Z,309.40
2019-01-23T00:37:44.562Z,293.47
2019-01-23T00:40:15.367Z,246.90
2019-01-23T00:42:43.953Z,275.50
2019-01-23T00:45:14.345Z,318.43
2019-01-23T00:47:42.954Z,216.33
2019-01-23T00:50:12.672Z,317.83
2019-01-23T00:52:41.240Z,320.73
2019-01-23T00:55:12.549Z,309.60
2019-01-23T00:57:41.046Z,217.03
2019-01-23T01:00:15.674Z,278.00
2019-01-23T01:02:44.193Z,171.83
2019-01-23T01:05:12.753Z,295.40
2019-01-23T01:07:41.456Z,123.70
2019-01-23T01:10:12.835Z,264.10
2019-01-23T01:12:41.468Z,286.93
2019-01-23T01:15:13.462Z,277.53
2019-01-23T01:17:40.267Z,268.50
2019-01-23T01:20:11.415Z,244.93
2019-01-23T01:22:40.106Z,229.10
2019-01-23T01:25:13.936Z,239.77
2019-01-23T01:27:42.423Z,271.30
2019-01-23T01:30:19.342Z,258.27
2019-01-23T01:32:47.871Z,229.37
2019-01-23T01:35:16.541Z,236.67
2019-01-23T01:37:45.105Z,181.73
2019-01-23T01:40:18.671Z,237.20
2019-01-23T01:42:47.290Z,267.83
2019-01-23T01:45:16.782Z,259.07
2019-01-23T01:47:45.286Z,271.87
2019-01-23T01:50:16.339Z,215.77
2019-01-23T01:52:44.866Z,220.50
2019-01-23T01:55:13.383Z,213.87
2019-01-23T01:57:42.058Z,196.73
2019-01-23T02:00:19.216Z,177.70
2019-01-23T02:02:47.802Z,179.03
2019-01-23T02:05:16.348Z,122.10
2019-01-23T02:07:45.032Z,212.07
2019-01-23T02:10:16.002Z,209.57
2019-01-23T02:12:44.476Z,209.97
2019-01-23T02:15:14.421Z,204.77
2019-01-23T02:17:42.959Z,238.33
2019-01-23T02:20:17.496Z,261.30
2019-01-23T02:22:45.995Z,272.00
2019-01-23T02:25:14.688Z,245.93
2019-01-23T02:27:44.425Z,248.93
2019-01-23T02:30:21.510Z,246.97
2019-01-23T02:32:50.264Z,218.27
2019-01-23T02:35:18.930Z,183.67
2019-01-23T02:37:47.492Z,227.80
2019-01-23T02:40:20.679Z,201.07
2019-01-23T02:42:49.353Z,213.80
2019-01-23T02:45:18.061Z,224.50
2019-01-23T02:47:46.853Z,243.90
2019-01-23T02:50:16.578Z,213.67
2019-01-23T02:52:45.329Z,191.10
2019-01-23T02:55:13.994Z,182.27
2019-01-23T02:57:42.683Z,182.07
2019-01-23T03:00:14.052Z,201.80
2019-01-23T03:02:42.731Z,180.27
2019-01-23T03:05:13.496Z,175.20
2019-01-23T03:07:42.227Z,203.87
2019-01-23T03:10:13.197Z,166.97
2019-01-23T03:12:41.796Z,152.70
2019-01-23T03:15:12.335Z,150.03
2019-01-23T03:17:41.153Z,179.63
2019-01-23T03:20:11.723Z,179.57
2019-01-23T03:22:40.398Z,148.63
2019-01-23T03:25:10.776Z,159.37
2019-01-23T03:27:39.407Z,156.67
2019-01-23T03:30:16.958Z,153.60
2019-01-23T03:32:45.684Z,141.57
2019-01-23T03:35:14.342Z,151.23
2019-01-23T03:37:43.013Z,130.57
2019-01-23T03:40:17.105Z,150.87
2019-01-23T03:42:45.854Z,126.87
2019-01-23T03:45:15.761Z,135.63
2019-01-23T03:47:44.375Z,139.67
2019-01-23T03:50:15.037Z,140.37
2019-01-23T03:52:43.672Z,157.87
2019-01-23T03:55:13.552Z,147.30
2019-01-23T03:57:42.086Z,222.27
2019-01-23T04:00:13.924Z,174.13
2019-01-23T04:02:42.534Z,137.17
2019-01-23T04:05:11.573Z,158.43
2019-01-23T04:07:40.091Z,143.47
2019-01-23T04:10:12.140Z,163.60
2019-01-23T04:12:40.804Z,136.87
2019-01-23T04:15:11.117Z,161.77
2019-01-23T04:17:39.829Z,160.73
2019-01-23T04:20:11.587Z,183.17
2019-01-23T04:22:40.318Z,177.63
2019-01-23T04:25:09.878Z,174.57
2019-01-23T04:27:38.488Z,152.63
2019-01-23T04:30:13.300Z,136.37
2019-01-23T04:32:41.775Z,142.40
2019-01-23T04:35:10.304Z,145.83
2019-01-23T04:37:38.770Z,123.97
2019-01-23T04:40:09.785Z,143.73
2019-01-23T04:42:38.312Z,174.23
2019-01-23T04:45:09.829Z,146.03
2019-01-23T04:47:38.332Z,102.57
2019-01-23T04:50:09.441Z,103.47
2019-01-23T04:52:42.194Z,104.50
2019-01-23T04:55:10.851Z,135.13
2019-01-23T04:57:39.404Z,89.23
2019-01-23T05:00:11.638Z,141.47
2019-01-23T05:02:40.128Z,124.67
2019-01-23T05:05:08.560Z,149.33
2019-01-23T05:07:37.197Z,112.43
2019-01-23T05:10:06.448Z,129.67
2019-01-23T05:12:36.677Z,127.80
2019-01-23T05:15:07.589Z,140.87
2019-01-23T05:17:36.165Z,125.87
2019-01-23T05:20:13.456Z,126.90
2019-01-23T05:22:42.049Z,102.60
2019-01-23T05:25:11.061Z,119.43
2019-01-23T05:27:39.801Z,139.73
2019-01-23T05:30:17.498Z,110.90
2019-01-23T05:32:46.142Z,94.67
2019-01-23T05:35:14.557Z,82.73
2019-01-23T05:37:43.161Z,57.93
2019-01-23T05:40:14.103Z,122.80
2019-01-23T05:42:42.323Z,111.87
2019-01-23T05:45:14.833Z,130.37
2019-01-23T05:47:43.611Z,128.73
2019-01-23T05:50:18.049Z,141.87
2019-01-23T05:52:48.503Z,130.83
2019-01-23T05:55:17.140Z,89.67
2019-01-23T05:57:45.809Z,104.83
2019-01-23T06:00:19.681Z,124.87
2019-01-23T06:02:48.234Z,118.80
2019-01-23T06:05:17.027Z,102.13
2019-01-23T06:07:45.626Z,85.63
2019-01-23T06:10:14.292Z,135.47
2019-01-23T06:12:42.823Z,152.90
2019-01-23T06:15:15.733Z,115.63
2019-01-23T06:17:44.308Z,112.87
2019-01-23T06:20:15.648Z,135.03
2019-01-23T06:22:44.488Z,124.03
2019-01-23T06:25:13.051Z,115.13
2019-01-23T06:27:41.919Z,88.43
2019-01-23T06:30:13.700Z,46.57
2019-01-23T06:32:42.320Z,34.87
2019-01-23T06:35:10.896Z,106.67
2019-01-23T06:37:39.496Z,93.27
2019-01-23T06:40:10.731Z,47.77
2019-01-23T06:42:39.236Z,98.00
2019-01-23T06:45:11.365Z,98.40
2019-01-23T06:47:39.829Z,93.63
2019-01-23T06:50:14.827Z,92.00
2019-01-23T06:52:43.608Z,72.77
2019-01-23T06:55:12.203Z,117.73
2019-01-23T06:57:40.727Z,103.10
2019-01-23T07:00:17.631Z,90.13
2019-01-23T07:02:46.312Z,101.10
2019-01-23T07:05:14.729Z,112.30
2019-01-23T07:07:43.280Z,90.53
2019-01-23T07:10:15.316Z,87.80
2019-01-23T07:12:43.823Z,92.07
2019-01-23T07:15:12.605Z,159.10
2019-01-23T07:17:41.185Z,79.00
2019-01-23T07:20:15.542Z,102.67
2019-01-23T07:22:44.136Z,207.53
2019-01-23T07:25:12.829Z,199.20
2019-01-23T07:27:41.397Z,134.13
2019-01-23T07:30:16.416Z,243.23
2019-01-23T07:32:45.158Z,392.03
2019-01-23T07:35:14.252Z,265.50
2019-01-23T07:37:42.879Z,177.57
2019-01-23T07:40:11.406Z,81.07
2019-01-23T07:42:40.021Z,139.23
2019-01-23T07:45:14.862Z,105.30
2019-01-23T07:47:43.477Z,183.27
2019-01-23T07:50:12.954Z,148.23
2019-01-23T07:52:41.595Z,149.97
2019-01-23T07:55:15.237Z,142.97
2019-01-23T07:57:43.848Z,191.60
2019-01-23T08:00:20.379Z,144.97
2019-01-23T08:02:48.872Z,297.70
2019-01-23T08:05:22.033Z,217.60
2019-01-23T08:07:50.575Z,151.17
2019-01-23T08:10:20.142Z,128.53
2019-01-23T08:12:48.704Z,136.20
2019-01-23T08:15:25.801Z,116.93
2019-01-23T08:17:54.312Z,172.07
2019-01-23T08:20:24.600Z,180.70
2019-01-23T08:22:53.218Z,236.00
2019-01-23T08:25:21.920Z,153.43
2019-01-23T08:27:50.811Z,129.27
2019-01-23T08:30:22.056Z,180.70
2019-01-23T08:32:50.800Z,134.17
2019-01-23T08:35:20.078Z,180.73
2019-01-23T08:37:48.944Z,189.30
2019-01-23T08:40:18.397Z,97.47
2019-01-23T08:42:46.811Z,222.17
2019-01-23T08:45:15.777Z,161.10
2019-01-23T08:47:44.224Z,131.10
2019-01-23T08:50:18.912Z,101.40
2019-01-23T08:52:47.490Z,133.53
2019-01-23T08:55:15.983Z,116.50
2019-01-23T08:57:44.533Z,88.73
2019-01-23T09:00:15.889Z,116.40
2019-01-23T09:02:44.489Z,102.53
2019-01-23T09:05:13.374Z,107.27
2019-01-23T09:07:41.925Z,136.20
2019-01-23T09:10:16.073Z,268.40
2019-01-23T09:12:44.593Z,376.77
2019-01-23T09:15:15.483Z,270.07
2019-01-23T09:17:44.380Z,128.10
2019-01-23T09:20:15.668Z,113.63
2019-01-23T09:22:44.298Z,153.03
2019-01-23T09:25:15.965Z,96.43
2019-01-23T09:27:44.546Z,95.00
2019-01-23T09:30:16.503Z,96.27
2019-01-23T09:33:09.241Z,111.57
2019-01-23T09:35:59.026Z,142.83
2019-01-23T09:38:58.275Z,87.00
2019-01-23T09:41:57.595Z,138.60
2019-01-23T09:44:47.420Z,655.27
2019-01-23T09:47:28.262Z,157.83
2019-01-23T09:50:00.185Z,156.90
2019-01-23T09:52:52.982Z,332.07
2019-01-23T09:55:21.498Z,119.87
2019-01-23T09:57:51.094Z,133.20
2019-01-23T10:00:22.848Z,330.90
2019-01-23T10:02:51.419Z,126.20
2019-01-23T10:05:20.238Z,113.40
2019-01-23T10:07:48.943Z,579.43
2019-01-23T10:10:21.887Z,177.17
2019-01-23T10:12:50.425Z,155.27
2019-01-23T10:15:27.903Z,98.97
2019-01-23T10:17:56.524Z,68.63
2019-01-23T10:20:25.125Z,75.07
2019-01-23T10:22:53.851Z,110.17
2019-01-23T10:25:22.632Z,88.63
2019-01-23T10:27:51.328Z,143.47
2019-01-23T10:30:20.962Z,129.20
2019-01-23T10:32:49.769Z,110.33
2019-01-23T10:35:18.990Z,126.23
2019-01-23T10:37:47.782Z,155.47
2019-01-23T10:40:17.812Z,242.20
2019-01-23T10:42:46.624Z,166.63
2019-01-23T10:45:15.828Z,112.20
2019-01-23T10:47:44.739Z,161.80
2019-01-23T10:50:15.214Z,103.50
2019-01-23T10:52:43.758Z,120.63
2019-01-23T10:55:12.340Z,87.27
2019-01-23T10:57:40.815Z,104.07
2019-01-23T11:00:21.332Z,61.63
2019-01-23T11:02:50.092Z,87.13
2019-01-23T11:05:24.024Z,123.63
2019-01-23T11:07:52.721Z,152.83
2019-01-23T11:10:23.672Z,105.73
2019-01-23T11:12:52.391Z,133.20
2019-01-23T11:15:21.055Z,101.80
2019-01-23T11:17:49.682Z,456.43
2019-01-23T11:20:19.937Z,168.07
2019-01-23T11:22:48.905Z,86.23
2019-01-23T11:25:19.925Z,89.63
2019-01-23T11:27:49.375Z,128.50
2019-01-23T11:30:20.634Z,80.67
2019-01-23T11:32:49.353Z,103.73
2019-01-23T11:35:17.894Z,75.30
2019-01-23T11:37:46.876Z,89.20
2019-01-23T11:40:27.432Z,87.83
2019-01-23T11:42:56.097Z,107.50
2019-01-23T11:45:24.941Z,78.00
2019-01-23T11:47:53.542Z,91.70
2019-01-23T11:50:23.218Z,113.57
2019-01-23T11:52:52.090Z,104.53
2019-01-23T11:55:20.685Z,84.87
2019-01-23T11:57:49.278Z,81.37
2019-01-23T12:00:22.745Z,103.30
2019-01-23T12:02:51.326Z,107.47
2019-01-23T12:05:21.420Z,86.80
2019-01-23T12:07:50.147Z,98.90
2019-01-23T12:10:23.811Z,71.63
2019-01-23T12:12:52.582Z,162.90
2019-01-23T12:15:23.230Z,75.97
2019-01-23T12:17:52.334Z,401.40
2019-01-23T12:20:21.205Z,258.47
2019-01-23T12:22:49.851Z,121.23
2019-01-23T12:25:18.431Z,606.63
2019-01-23T12:27:47.078Z,411.93
2019-01-23T12:30:21.475Z,672.70
2019-01-23T12:32:50.108Z,865.07
2019-01-23T12:35:18.865Z,229.97
2019-01-23T12:37:47.535Z,286.03
2019-01-23T12:40:16.670Z,82.77
2019-01-23T12:42:45.413Z,102.37
2019-01-23T12:45:19.816Z,90.77
2019-01-23T12:47:48.477Z,100.47
2019-01-23T12:50:19.929Z,112.00
2019-01-23T12:52:48.403Z,236.17
2019-01-23T12:55:17.825Z,128.47
2019-01-23T12:57:46.472Z,904.97
2019-01-23T13:00:20.687Z,591.27
2019-01-23T13:02:49.244Z,566.40
2019-01-23T13:05:19.377Z,507.70
2019-01-23T13:07:48.009Z,452.57
2019-01-23T13:10:21.337Z,221.10
2019-01-23T13:12:50.027Z,225.50
2019-01-23T13:15:23.693Z,785.40
2019-01-23T13:17:52.713Z,691.57
2019-01-23T13:20:23.227Z,678.40
2019-01-23T13:22:51.993Z,762.17
2019-01-23T13:25:23.422Z,582.03
2019-01-23T13:27:52.179Z,1028.57
2019-01-23T13:30:22.814Z,619.77
2019-01-23T13:32:51.805Z,251.73
2019-01-23T13:35:23.313Z,169.80
2019-01-23T13:37:51.993Z,226.73
2019-01-23T13:40:29.495Z,281.37
2019-01-23T13:42:58.303Z,442.20
2019-01-23T13:45:27.026Z,376.27
2019-01-23T13:47:56.329Z,245.03
2019-01-23T13:50:25.269Z,430.17
2019-01-23T13:52:54.048Z,447.13
2019-01-23T13:55:23.524Z,379.80
2019-01-23T13:57:52.235Z,509.60
2019-01-23T14:00:27.088Z,237.33
2019-01-23T14:02:55.832Z,202.90
2019-01-23T14:05:24.491Z,92.63
2019-01-23T14:07:53.177Z,149.53
2019-01-23T14:10:21.813Z,97.43
2019-01-23T14:12:50.441Z,173.83
2019-01-23T14:15:24.858Z,152.33
2019-01-23T14:17:53.401Z,171.17
2019-01-23T14:20:21.926Z,248.03
2019-01-23T14:22:50.541Z,203.83
2019-01-23T14:25:19.227Z,296.90
2019-01-23T14:27:47.867Z,350.37
2019-01-23T14:30:28.052Z,357.47
2019-01-23T14:32:56.658Z,328.73
2019-01-23T14:35:25.540Z,304.17
2019-01-23T14:38:00.592Z,318.07
2019-01-23T14:40:24.462Z,148.20
2019-01-23T14:42:53.662Z,160.97
2019-01-23T14:45:22.626Z,117.60
2019-01-23T14:47:51.327Z,121.73
2019-01-23T14:50:21.301Z,166.80
2019-01-23T14:52:50.240Z,127.30
2019-01-23T14:55:18.815Z,157.07
2019-01-23T14:57:47.358Z,135.03
2019-01-23T15:00:24.660Z,189.57
2019-01-23T15:02:53.318Z,252.10
2019-01-23T15:05:21.946Z,284.70
2019-01-23T15:07:50.740Z,274.70
2019-01-23T15:10:21.767Z,234.10
2019-01-23T15:12:50.373Z,303.10
2019-01-23T15:15:20.679Z,150.33
2019-01-23T15:17:49.930Z,326.93
2019-01-23T15:20:26.834Z,141.93
2019-01-23T15:22:55.451Z,101.37
2019-01-23T15:25:24.056Z,76.80
2019-01-23T15:27:52.769Z,108.20
2019-01-23T15:30:22.796Z,90.67
2019-01-23T15:32:52.342Z,83.27
2019-01-23T15:35:21.258Z,66.93
2019-01-23T15:37:49.806Z,101.80
2019-01-23T15:40:24.042Z,55.03
2019-01-23T15:42:52.735Z,111.60
2019-01-23T15:45:21.247Z,71.53
2019-01-23T15:47:49.779Z,81.93
2019-01-23T15:50:24.474Z,67.10
2019-01-23T15:52:53.059Z,52.93
2019-01-23T15:55:23.538Z,58.17
2019-01-23T15:57:52.150Z,74.53
2019-01-23T16:00:30.956Z,71.47
2019-01-23T16:02:59.790Z,71.10
2019-01-23T16:05:28.717Z,345.83
2019-01-23T16:07:58.711Z,150.63
2019-01-23T16:10:28.680Z,80.70
2019-01-23T16:12:57.828Z,362.97
2019-01-23T16:15:27.833Z,218.17
2019-01-23T16:18:05.122Z,248.83
2019-01-23T16:20:35.089Z,251.80
2019-01-23T16:23:03.674Z,152.33
2019-01-23T16:25:32.622Z,148.60
2019-01-23T16:28:01.217Z,194.67
2019-01-23T16:30:34.772Z,93.67
2019-01-23T16:33:03.528Z,235.53
2019-01-23T16:35:38.507Z,90.90
2019-01-23T16:38:03.074Z,156.27
2019-01-23T16:40:31.877Z,113.60
2019-01-23T16:43:00.643Z,124.60
2019-01-23T16:45:29.309Z,102.57
2019-01-23T16:47:57.915Z,104.00
2019-01-23T16:50:28.102Z,77.60
2019-01-23T16:52:56.784Z,206.90
2019-01-23T16:55:25.556Z,75.23
2019-01-23T16:57:54.483Z,63.13
2019-01-23T17:00:25.053Z,41.97
2019-01-23T17:02:53.692Z,64.30
2019-01-23T17:05:27.789Z,85.57
2019-01-23T17:07:57.300Z,130.50
2019-01-23T17:10:27.410Z,342.63
2019-01-23T17:12:56.116Z,168.27
2019-01-23T17:15:26.095Z,244.00
2019-01-23T17:17:54.803Z,307.17
2019-01-23T17:20:26.462Z,614.10
2019-01-23T17:22:55.297Z,314.97
2019-01-23T17:25:24.370Z,168.03
2019-01-23T17:27:53.096Z,159.50
2019-01-23T17:30:21.819Z,97.93
2019-01-23T17:32:52.452Z,107.00
2019-01-23T17:35:21.719Z,107.70
2019-01-23T17:37:50.439Z,92.83
2019-01-23T17:40:20.915Z,79.23
2019-01-23T17:42:49.476Z,79.60
2019-01-23T17:45:29.700Z,85.30
2019-01-23T17:47:58.359Z,68.63
2019-01-23T17:50:26.899Z,64.00
2019-01-23T17:52:55.586Z,52.40
2019-01-23T17:55:32.426Z,82.77
2019-01-23T17:58:01.149Z,54.43
2019-01-23T18:00:32.383Z,77.43
2019-01-23T18:03:00.914Z,44.60
2019-01-23T18:05:29.801Z,128.53
2019-01-23T18:07:58.538Z,103.83
2019-01-23T18:10:27.315Z,96.40
2019-01-23T18:12:56.382Z,108.63
2019-01-23T18:15:27.346Z,87.90
2019-01-23T18:17:55.949Z,92.27
2019-01-23T18:20:26.692Z,67.80
2019-01-23T18:22:55.427Z,56.03
2019-01-23T18:25:23.998Z,113.73
2019-01-23T18:27:52.792Z,138.80
2019-01-23T18:30:38.527Z,61.07
2019-01-23T18:33:10.569Z,79.87
2019-01-23T18:35:48.132Z,74.43
2019-01-23T18:38:25.663Z,75.73
2019-01-23T18:41:00.123Z,102.50
2019-01-23T18:43:57.919Z,49.80
2019-01-23T18:46:32.932Z,56.27
2019-01-23T18:49:19.894Z,67.17
2019-01-23T18:51:51.294Z,98.00
2019-01-23T18:54:19.847Z,61.30
2019-01-23T18:56:48.594Z,42.37
2019-01-23T18:59:17.173Z,42.57
2019-01-23T19:01:45.893Z,29.73
2019-01-23T19:04:14.481Z,39.67
2019-01-23T19:06:43.137Z,49.87
2019-01-23T19:09:11.692Z,30.03
2019-01-23T19:11:40.770Z,51.53
2019-01-23T19:14:09.417Z,55.17
2019-01-23T19:16:38.129Z,69.00
2019-01-23T19:19:06.748Z,55.73
2019-01-23T19:21:35.456Z,44.07
2019-01-23T19:24:04.087Z,65.80
2019-01-23T19:26:32.922Z,31.47
2019-01-23T19:29:01.539Z,70.73
2019-01-23T19:31:30.270Z,58.30
2019-01-23T19:33:59.318Z,43.17
2019-01-23T19:36:27.856Z,38.33
2019-01-23T19:38:56.716Z,39.63
2019-01-23T19:41:25.479Z,42.47
2019-01-23T19:43:54.124Z,60.20
2019-01-23T19:46:22.898Z,82.00
2019-01-23T19:48:51.555Z,78.27
2019-01-23T19:51:20.217Z,84.23
2019-01-23T19:53:49.101Z,75.20
2019-01-23T19:56:17.612Z,59.93
2019-01-23T19:58:46.611Z,57.53
2019-01-23T20:01:15.295Z,63.97
2019-01-23T20:03:43.843Z,55.40
2019-01-23T20:06:12.519Z,49.67
2019-01-23T20:08:41.180Z,53.13
2019-01-23T20:11:10.322Z,94.20
2019-01-23T20:13:39.120Z,95.70
2019-01-23T20:16:07.817Z,43.37
2019-01-23T20:18:37.308Z,63.60
2019-01-23T20:21:06.539Z,66.07
2019-01-23T20:23:35.245Z,94.73
2019-01-23T20:26:03.960Z,80.33
2019-01-23T20:28:32.613Z,57.73
2019-01-23T20:31:01.275Z,97.13
2019-01-23T20:33:29.927Z,88.57
2019-01-23T20:35:58.466Z,88.60
2019-01-23T20:38:27.216Z,88.40
2019-01-23T20:40:55.920Z,89.73
2019-01-23T20:43:24.424Z,110.47
2019-01-23T20:45:53.141Z,106.97
2019-01-23T20:48:21.762Z,88.93
2019-01-23T20:50:50.487Z,76.10
2019-01-23T20:53:19.009Z,102.03
2019-01-23T20:55:47.657Z,97.63
2019-01-23T20:58:16.212Z,90.17
2019-01-23T21:00:44.850Z,89.40
2019-01-23T21:03:13.559Z,79.20
2019-01-23T21:05:42.172Z,75.37
2019-01-23T21:08:10.828Z,114.53
2019-01-23T21:10:39.552Z,153.43
2019-01-23T21:13:08.100Z,91.93
2019-01-23T21:15:36.736Z,83.53
2019-01-23T21:18:05.664Z,88.93
2019-01-23T21:20:34.256Z,106.93
2019-01-23T21:23:02.971Z,94.07
2019-01-23T21:25:31.532Z,83.33
2019-01-23T21:28:00.152Z,70.53
2019-01-23T21:30:28.819Z,88.57
2019-01-23T21:32:57.390Z,80.07
2019-01-23T21:35:25.948Z,66.43
2019-01-23T21:37:54.632Z,70.50
2019-01-23T21:40:26.115Z,68.23
2019-01-23T21:42:54.626Z,76.90
2019-01-23T21:45:23.314Z,95.27
2019-01-23T21:47:52.497Z,72.30
2019-01-23T21:50:22.939Z,79.83
2019-01-23T21:52:51.592Z,82.20
2019-01-23T21:55:21.918Z,81.43
2019-01-23T21:57:50.722Z,126.97
2019-01-23T22:00:25.487Z,80.60
2019-01-23T22:02:55.305Z,87.33
2019-01-23T22:05:23.928Z,64.83
2019-01-23T22:07:52.473Z,73.97
2019-01-23T22:10:21.130Z,73.67
2019-01-23T22:12:49.589Z,85.50
2019-01-23T22:15:23.830Z,104.57
2019-01-23T22:17:52.459Z,67.83
2019-01-23T22:20:21.909Z,83.47
2019-01-23T22:22:50.568Z,85.60
2019-01-23T22:25:21.579Z,72.57
2019-01-23T22:27:50.162Z,84.77
2019-01-23T22:30:24.819Z,82.50
2019-01-23T22:32:53.531Z,80.10
2019-01-23T22:35:21.992Z,99.67
2019-01-23T22:37:50.567Z,99.87
2019-01-23T22:40:20.004Z,73.20
2019-01-23T22:42:48.707Z,85.00
2019-01-23T22:45:19.210Z,80.87
2019-01-23T22:47:48.240Z,76.97
2019-01-23T22:50:18.926Z,67.53
2019-01-23T22:52:47.682Z,79.67
2019-01-23T22:55:16.872Z,67.13
2019-01-23T22:57:45.526Z,71.43
2019-01-23T23:00:22.579Z,89.27
2019-01-23T23:02:51.412Z,69.57
2019-01-23T23:05:20.179Z,60.50
2019-01-23T23:07:48.794Z,73.00
2019-01-23T23:10:17.503Z,57.87
2019-01-23T23:12:46.130Z,77.10
2019-01-23T23:15:14.821Z,73.20
2019-01-23T23:17:43.631Z,78.23
2019-01-23T23:20:13.267Z,57.77
2019-01-23T23:22:42.156Z,82.90
2019-01-23T23:25:11.079Z,87.33
2019-01-23T23:27:39.855Z,93.80
2019-01-23T23:30:11.687Z,113.03
2019-01-23T23:32:41.341Z,109.00
2019-01-23T23:35:10.760Z,81.20
2019-01-23T23:37:41.830Z,77.23
2019-01-23T23:40:16.598Z,92.53
2019-01-23T23:42:45.876Z,93.23
2019-01-23T23:45:19.048Z,59.63
2019-01-23T23:47:47.693Z,71.90
2019-01-23T23:50:17.011Z,78.63
2019-01-23T23:52:45.717Z,68.73
2019-01-23T23:55:15.173Z,78.57
2019-01-23T23:57:43.917Z,76.47
